Time;durP1;ratioP1;P1;durP2;ratioP2;P2;SDS_P1;SDS_P2;PMS_P1;PMS_P2;Temp;Humidity;BMP_temperature;BMP_pressure;BME280_temperature;BME280_humidity;BME280_pressure;Samples;Min_cycle;Max_cycle;Signal;HPM_P1;HPM_P2
2022/07/10 00:01:42;;;;;;;;;;;11.60;99.90;;;;;;5014084;28;20007;-77
2022/07/10 00:04:09;;;;;;;;;;;11.60;99.90;;;;;;5013915;28;19921;-78
2022/07/10 00:06:36;;;;;;;;;;;11.60;99.90;;;;;;5013996;28;19961;-77
2022/07/10 00:09:02;;;;;;;;;;;11.60;99.90;;;;;;5013668;28;20303;-78
2022/07/10 00:11:29;;;;;;;;;;;11.70;99.90;;;;;;5013793;28;20264;-78
2022/07/10 00:13:56;;;;;;;;;;;11.70;99.90;;;;;;5013882;28;19909;-78
2022/07/10 00:16:24;;;;;;;;;;;11.60;99.90;;;;;;5013841;28;19910;-74
2022/07/10 00:18:51;;;;;;;;;;;11.60;99.90;;;;;;5013678;28;20008;-74
2022/07/10 00:21:18;;;;;;;;;;;11.50;99.90;;;;;;5013632;28;19955;-77
2022/07/10 00:23:44;;;;;;;;;;;11.40;99.90;;;;;;5013568;28;19909;-76
2022/07/10 00:26:11;;;;;;;;;;;11.40;99.90;;;;;;5013525;28;19910;-76
2022/07/10 00:28:38;;;;;;;;;;;11.50;99.90;;;;;;5013581;28;19941;-77
2022/07/10 00:31:05;;;;;;;;;;;11.60;99.90;;;;;;5013363;28;20000;-75
2022/07/10 00:33:32;;;;;;;;;;;11.70;99.90;;;;;;5013491;28;19919;-75
2022/07/10 00:35:59;;;;;;;;;;;11.70;99.90;;;;;;5013511;28;19916;-74
2022/07/10 00:38:26;;;;;;;;;;;11.80;99.90;;;;;;5012752;28;19967;-75
2022/07/10 00:40:53;;;;;;;;;;;11.90;99.90;;;;;;5012733;28;20367;-75
2022/07/10 00:43:20;;;;;;;;;;;12.00;99.90;;;;;;5012018;28;19909;-79
2022/07/10 00:45:47;;;;;;;;;;;12.10;99.90;;;;;;4993756;28;19910;-78
2022/07/10 00:48:13;;;;;;;;;;;12.30;99.90;;;;;;4993726;28;20364;-75
2022/07/10 00:50:41;;;;;;;;;;;12.40;99.90;;;;;;4993193;28;19968;-76
2022/07/10 00:53:08;;;;;;;;;;;12.50;99.90;;;;;;4993619;28;19968;-75
2022/07/10 00:55:35;;;;;;;;;;;12.50;99.90;;;;;;4993662;28;19980;-76
2022/07/10 00:58:03;;;;;;;;;;;12.50;99.90;;;;;;4993568;28;20295;-75
2022/07/10 01:00:30;;;;;;;;;;;12.60;99.90;;;;;;4993461;28;19913;-75
2022/07/10 01:02:57;;;;;;;;;;;12.50;99.90;;;;;;4993747;28;20013;-74
2022/07/10 01:05:23;;;;;;;;;;;12.50;99.90;;;;;;4992812;28;19921;-74
2022/07/10 01:07:50;;;;;;;;;;;12.50;99.90;;;;;;4993439;28;19910;-75
2022/07/10 01:10:17;;;;;;;;;;;12.60;99.90;;;;;;4993257;28;20407;-75
2022/07/10 01:12:44;;;;;;;;;;;12.60;99.90;;;;;;4993479;28;20001;-74
2022/07/10 01:15:11;;;;;;;;;;;12.70;99.90;;;;;;4976008;28;20437;-77
2022/07/10 01:17:37;;;;;;;;;;;12.70;99.90;;;;;;4993495;28;20279;-80
2022/07/10 01:20:05;;;;;;;;;;;12.80;99.90;;;;;;4992900;28;19910;-74
2022/07/10 01:22:32;;;;;;;;;;;12.80;99.90;;;;;;4995254;28;20375;-76
2022/07/10 01:24:59;;;;;;;;;;;13.00;99.90;;;;;;4997023;28;19910;-80
2022/07/10 01:27:25;;;;;;;;;;;13.20;99.90;;;;;;4997446;28;20371;-76
2022/07/10 01:29:53;;;;;;;;;;;13.30;99.90;;;;;;4997259;28;19925;-75
2022/07/10 01:32:20;;;;;;;;;;;13.40;99.90;;;;;;4997415;28;19910;-74
2022/07/10 01:34:47;;;;;;;;;;;13.70;99.90;;;;;;4998902;28;20311;-78
2022/07/10 01:37:13;;;;;;;;;;;13.60;99.90;;;;;;4997124;28;19910;-78
2022/07/10 01:39:40;;;;;;;;;;;13.30;99.90;;;;;;4997156;28;19909;-78
2022/07/10 01:42:07;;;;;;;;;;;13.00;99.90;;;;;;4996948;28;19910;-78
2022/07/10 01:44:33;;;;;;;;;;;13.00;99.90;;;;;;4997038;28;20339;-76
2022/07/10 01:47:00;;;;;;;;;;;12.90;99.90;;;;;;4996316;28;20285;-76
2022/07/10 01:49:27;;;;;;;;;;;12.80;99.90;;;;;;4995952;28;20000;-77
2022/07/10 01:51:53;;;;;;;;;;;12.60;99.90;;;;;;4996760;28;19916;-78
2022/07/10 01:54:20;;;;;;;;;;;12.50;99.90;;;;;;4996461;28;19993;-79
2022/07/10 01:56:47;;;;;;;;;;;12.50;99.90;;;;;;4996491;28;19913;-77
2022/07/10 01:59:14;;;;;;;;;;;12.50;99.90;;;;;;4996240;28;19917;-79
2022/07/10 02:01:40;;;;;;;;;;;12.60;99.90;;;;;;4996012;28;19910;-78
2022/07/10 02:06:52;;;;;;;;;;;12.50;99.90;;;;;;4996420;28;19976;-79
2022/07/10 02:09:19;;;;;;;;;;;12.40;99.90;;;;;;4996269;28;19929;-79
2022/07/10 02:11:45;;;;;;;;;;;12.40;99.90;;;;;;4996266;28;19914;-78
2022/07/10 02:14:12;;;;;;;;;;;12.40;99.90;;;;;;4996407;28;19949;-78
2022/07/10 02:16:39;;;;;;;;;;;12.30;99.90;;;;;;4996316;28;19917;-79
2022/07/10 02:19:06;;;;;;;;;;;12.20;99.90;;;;;;4996008;28;19910;-79
2022/07/10 02:21:32;;;;;;;;;;;12.30;99.90;;;;;;4995021;28;20400;-81
2022/07/10 02:23:59;;;;;;;;;;;12.30;99.90;;;;;;4995867;28;20347;-79
2022/07/10 02:26:26;;;;;;;;;;;12.40;99.90;;;;;;4996088;28;19910;-76
2022/07/10 02:28:52;;;;;;;;;;;12.60;99.90;;;;;;5012608;28;20359;-78
2022/07/10 02:31:19;;;;;;;;;;;12.70;99.90;;;;;;5015652;28;19916;-77
2022/07/10 02:33:46;;;;;;;;;;;12.90;99.90;;;;;;5014272;28;19921;-75
2022/07/10 02:36:12;;;;;;;;;;;13.00;99.90;;;;;;5015303;28;19933;-75
2022/07/10 02:38:39;;;;;;;;;;;13.10;99.90;;;;;;5015285;28;19909;-75
2022/07/10 02:41:06;;;;;;;;;;;13.10;99.90;;;;;;4997695;28;19917;-75
2022/07/10 02:43:33;;;;;;;;;;;13.10;99.90;;;;;;5014549;28;19968;-76
2022/07/10 02:45:59;;;;;;;;;;;13.20;99.90;;;;;;5015092;28;19945;-78
2022/07/10 02:48:26;;;;;;;;;;;13.40;99.90;;;;;;5015047;28;19925;-79
2022/07/10 02:50:53;;;;;;;;;;;13.50;99.90;;;;;;5014792;28;19909;-76
2022/07/10 02:53:20;;;;;;;;;;;13.60;99.90;;;;;;5014946;28;19913;-80
2022/07/10 02:55:46;;;;;;;;;;;13.70;99.90;;;;;;5015065;28;19910;-80
2022/07/10 02:58:15;;;;;;;;;;;13.60;99.90;;;;;;5014400;28;20287;-79
2022/07/10 03:00:41;;;;;;;;;;;13.70;99.90;;;;;;5015190;28;19914;-80
2022/07/10 03:03:08;;;;;;;;;;;13.80;99.90;;;;;;5014987;28;19910;-80
2022/07/10 03:05:35;;;;;;;;;;;14.00;99.90;;;;;;5014813;28;19930;-77
2022/07/10 03:08:02;;;;;;;;;;;14.00;99.90;;;;;;5014643;28;19948;-78
2022/07/10 03:10:28;;;;;;;;;;;14.10;99.90;;;;;;5014645;28;19920;-74
2022/07/10 03:12:55;;;;;;;;;;;14.20;99.90;;;;;;5014079;28;20056;-80
2022/07/10 03:15:22;;;;;;;;;;;14.60;99.90;;;;;;5015078;28;19916;-79
2022/07/10 03:17:49;;;;;;;;;;;14.70;99.90;;;;;;5014807;28;20307;-80
2022/07/10 03:20:16;;;;;;;;;;;14.70;99.90;;;;;;5014464;28;19910;-77
2022/07/10 03:22:43;;;;;;;;;;;14.70;99.90;;;;;;5014670;28;19909;-83
2022/07/10 03:25:10;;;;;;;;;;;14.70;99.90;;;;;;5014074;28;19975;-80
2022/07/10 03:27:36;;;;;;;;;;;14.70;99.90;;;;;;5014767;28;19909;-79
2022/07/10 03:30:03;;;;;;;;;;;14.40;99.90;;;;;;5014587;28;19948;-75
2022/07/10 03:32:30;;;;;;;;;;;14.10;99.90;;;;;;5014479;28;20459;-77
2022/07/10 03:34:57;;;;;;;;;;;14.00;99.90;;;;;;5014185;28;19909;-78
2022/07/10 03:37:24;;;;;;;;;;;14.10;99.90;;;;;;5014397;28;19910;-81
2022/07/10 03:39:50;;;;;;;;;;;14.20;99.90;;;;;;5014272;28;20244;-78
2022/07/10 03:42:17;;;;;;;;;;;14.20;99.90;;;;;;5014300;28;19916;-80
2022/07/10 03:44:44;;;;;;;;;;;14.30;99.90;;;;;;5013997;28;20383;-78
2022/07/10 03:47:11;;;;;;;;;;;14.40;99.90;;;;;;5014158;28;20350;-76
2022/07/10 03:49:41;;;;;;;;;;;14.60;99.90;;;;;;5014150;28;20415;-79
2022/07/10 03:52:08;;;;;;;;;;;14.60;99.90;;;;;;5014210;28;19916;-76
2022/07/10 03:54:35;;;;;;;;;;;14.70;99.90;;;;;;5012729;28;19914;-79
2022/07/10 03:59:47;;;;;;;;;;;14.90;99.90;;;;;;5013518;28;19916;-78
2022/07/10 04:02:13;;;;;;;;;;;15.00;99.90;;;;;;5013181;28;19910;-78
2022/07/10 04:04:43;;;;;;;;;;;14.90;99.90;;;;;;5013162;28;19922;-78
2022/07/10 04:07:12;;;;;;;;;;;15.00;99.90;;;;;;5013106;28;20355;-76
2022/07/10 04:09:39;;;;;;;;;;;15.00;99.90;;;;;;5012963;28;19917;-78
2022/07/10 04:12:06;;;;;;;;;;;14.90;99.90;;;;;;5012955;28;19963;-76
2022/07/10 04:14:33;;;;;;;;;;;14.80;99.90;;;;;;5028249;28;19914;-79
2022/07/10 04:16:59;;;;;;;;;;;14.70;99.90;;;;;;5012767;28;19977;-78
2022/07/10 04:19:26;;;;;;;;;;;14.70;99.90;;;;;;5012935;28;19910;-75
2022/07/10 04:21:53;;;;;;;;;;;14.70;99.90;;;;;;5012956;28;19955;-75
2022/07/10 04:24:19;;;;;;;;;;;14.80;99.90;;;;;;5012673;28;19949;-75
2022/07/10 04:26:46;;;;;;;;;;;14.90;99.90;;;;;;5013164;28;20024;-75
2022/07/10 04:29:13;;;;;;;;;;;15.00;99.90;;;;;;5012589;28;19918;-76
2022/07/10 04:31:40;;;;;;;;;;;15.10;99.90;;;;;;5012878;28;20004;-74
2022/07/10 04:34:06;;;;;;;;;;;15.20;99.90;;;;;;5012850;28;19913;-76
2022/07/10 04:36:33;;;;;;;;;;;15.20;99.90;;;;;;5012779;28;19910;-77
2022/07/10 04:39:00;;;;;;;;;;;15.10;99.90;;;;;;5012647;28;19984;-76
2022/07/10 04:41:26;;;;;;;;;;;15.10;99.90;;;;;;5012795;28;20336;-77
2022/07/10 04:43:53;;;;;;;;;;;15.00;99.90;;;;;;5012758;28;19916;-75
2022/07/10 04:46:20;;;;;;;;;;;14.10;99.90;;;;;;5012719;28;19910;-76
2022/07/10 04:48:47;;;;;;;;;;;13.30;99.90;;;;;;5012517;28;20371;-77
2022/07/10 04:51:14;;;;;;;;;;;12.80;99.90;;;;;;5012425;28;20375;-79
2022/07/10 04:53:40;;;;;;;;;;;12.50;99.90;;;;;;5012389;28;19932;-79
2022/07/10 04:56:07;;;;;;;;;;;12.30;99.90;;;;;;5012696;28;19910;-76
2022/07/10 04:58:34;;;;;;;;;;;12.20;99.90;;;;;;5016174;28;19910;-79
2022/07/10 05:01:01;;;;;;;;;;;12.20;99.90;;;;;;5016134;28;19910;-77
2022/07/10 05:03:28;;;;;;;;;;;12.10;99.90;;;;;;5016386;28;19910;-78
2022/07/10 05:05:55;;;;;;;;;;;12.10;99.90;;;;;;5016749;28;20028;-78
2022/07/10 05:08:22;;;;;;;;;;;12.10;99.90;;;;;;5016331;28;20004;-77
2022/07/10 05:10:48;;;;;;;;;;;12.10;99.90;;;;;;5016428;28;20323;-77
2022/07/10 05:13:15;;;;;;;;;;;12.10;99.90;;;;;;5016177;28;20383;-76
2022/07/10 05:15:42;;;;;;;;;;;12.10;99.90;;;;;;5016354;28;20009;-77
2022/07/10 05:18:08;;;;;;;;;;;12.10;99.90;;;;;;5016293;28;19909;-76
2022/07/10 05:20:36;;;;;;;;;;;12.10;99.90;;;;;;5016167;28;20343;-75
2022/07/10 05:23:03;;;;;;;;;;;12.30;99.90;;;;;;5015674;28;19910;-75
2022/07/10 05:25:32;;;;;;;;;;;12.20;99.90;;;;;;5016136;28;20347;-76
2022/07/10 05:27:58;;;;;;;;;;;12.30;99.90;;;;;;5016159;28;19996;-78
2022/07/10 05:30:25;;;;;;;;;;;12.40;99.90;;;;;;5016075;28;20356;-77
2022/07/10 05:32:52;;;;;;;;;;;12.40;99.90;;;;;;5015707;28;19913;-76
2022/07/10 05:35:18;;;;;;;;;;;12.40;99.90;;;;;;5015835;28;19952;-78
2022/07/10 05:37:45;;;;;;;;;;;12.40;99.90;;;;;;5015780;28;19953;-77
2022/07/10 05:40:12;;;;;;;;;;;12.50;99.90;;;;;;5015831;28;19914;-75
2022/07/10 05:42:39;;;;;;;;;;;12.50;99.90;;;;;;5014582;28;20383;-76
2022/07/10 05:45:06;;;;;;;;;;;12.60;99.90;;;;;;5015671;28;20352;-77
2022/07/10 05:47:33;;;;;;;;;;;12.60;99.90;;;;;;5016296;28;19996;-73
2022/07/10 05:50:00;;;;;;;;;;;12.60;99.90;;;;;;5015771;28;19918;-77
2022/07/10 05:52:27;;;;;;;;;;;12.60;99.90;;;;;;5016269;28;19909;-76
2022/07/10 05:54:54;;;;;;;;;;;12.40;99.90;;;;;;5015860;28;19909;-76
2022/07/10 05:57:20;;;;;;;;;;;12.40;99.90;;;;;;5016004;28;19910;-75
2022/07/10 05:59:47;;;;;;;;;;;12.60;99.90;;;;;;5016032;28;19909;-75
2022/07/10 06:02:15;;;;;;;;;;;12.60;99.90;;;;;;5016022;28;19910;-73
2022/07/10 06:04:41;;;;;;;;;;;12.80;99.90;;;;;;5015189;28;19932;-74
2022/07/10 06:07:08;;;;;;;;;;;12.70;99.90;;;;;;5015693;28;19910;-73
2022/07/10 06:09:35;;;;;;;;;;;12.80;99.90;;;;;;5015270;28;19917;-74
2022/07/10 06:12:02;;;;;;;;;;;13.10;99.90;;;;;;5015909;28;19913;-73
2022/07/10 06:14:29;;;;;;;;;;;13.30;99.90;;;;;;5015958;28;19909;-74
2022/07/10 06:16:55;;;;;;;;;;;13.50;99.90;;;;;;5015676;28;19920;-74
2022/07/10 06:19:22;;;;;;;;;;;13.60;99.90;;;;;;5015281;28;19917;-75
2022/07/10 06:22:30;;;;;;;;;;;13.60;99.90;;;;;;5015901;28;19910;-74
2022/07/10 06:24:35;;;;;;;;;;;13.50;99.90;;;;;;5015490;28;20375;-74
2022/07/10 06:27:02;;;;;;;;;;;13.20;99.90;;;;;;5015607;28;20435;-75
2022/07/10 06:29:28;;;;;;;;;;;13.10;99.90;;;;;;5015592;28;20322;-75
2022/07/10 06:31:55;;;;;;;;;;;12.90;99.90;;;;;;5015496;28;19910;-74
2022/07/10 06:34:22;;;;;;;;;;;12.80;99.90;;;;;;5015110;28;19910;-74
2022/07/10 06:36:49;;;;;;;;;;;12.60;99.90;;;;;;5015474;28;20281;-74
2022/07/10 06:39:15;;;;;;;;;;;12.40;99.90;;;;;;5015105;28;19963;-74
2022/07/10 06:41:42;;;;;;;;;;;12.30;99.90;;;;;;4997779;28;19910;-74
2022/07/10 06:44:09;;;;;;;;;;;12.20;99.90;;;;;;5015442;28;19909;-75
2022/07/10 06:46:35;;;;;;;;;;;12.00;99.90;;;;;;5015458;28;19910;-74
2022/07/10 06:49:02;;;;;;;;;;;12.00;99.90;;;;;;5014422;28;19937;-74
2022/07/10 06:51:29;;;;;;;;;;;12.00;99.90;;;;;;5015151;28;20340;-74
2022/07/10 06:53:56;;;;;;;;;;;11.90;99.90;;;;;;5015006;28;19917;-75
2022/07/10 06:56:22;;;;;;;;;;;11.90;99.90;;;;;;5014680;28;19910;-74
2022/07/10 06:58:49;;;;;;;;;;;12.00;99.90;;;;;;5015116;28;19917;-75
2022/07/10 07:01:16;;;;;;;;;;;12.00;99.90;;;;;;5014847;28;19916;-73
2022/07/10 07:03:43;;;;;;;;;;;12.00;99.90;;;;;;5014989;28;19996;-75
2022/07/10 07:06:10;;;;;;;;;;;12.00;99.90;;;;;;5015020;28;19921;-75
2022/07/10 07:08:37;;;;;;;;;;;12.00;99.90;;;;;;5013654;28;19913;-76
2022/07/10 07:11:03;;;;;;;;;;;12.00;99.90;;;;;;5014787;28;19910;-74
2022/07/10 07:13:30;;;;;;;;;;;12.00;99.90;;;;;;5014795;28;19910;-74
2022/07/10 07:16:04;;;;;;;;;;;11.90;99.90;;;;;;5013834;28;20512;-74
2022/07/10 07:18:35;;;;;;;;;;;11.90;99.90;;;;;;5014587;28;20426;-73
2022/07/10 07:23:46;;;;;;;;;;;11.90;99.90;;;;;;5014957;28;20383;-80
2022/07/10 07:26:13;;;;;;;;;;;11.80;99.90;;;;;;5014652;28;19915;-75
2022/07/10 07:28:40;;;;;;;;;;;11.80;99.90;;;;;;5014514;28;19914;-75
2022/07/10 07:31:06;;;;;;;;;;;11.80;99.90;;;;;;5013595;28;19913;-79
2022/07/10 07:33:33;;;;;;;;;;;11.80;99.90;;;;;;5014501;28;19909;-75
2022/07/10 07:36:00;;;;;;;;;;;11.80;99.90;;;;;;5014241;28;20359;-76
2022/07/10 07:38:26;;;;;;;;;;;11.70;99.90;;;;;;5014224;28;19913;-79
2022/07/10 07:40:53;;;;;;;;;;;11.70;99.90;;;;;;5014171;28;20356;-76
2022/07/10 07:43:20;;;;;;;;;;;11.80;99.90;;;;;;5014004;28;19909;-78
2022/07/10 07:45:47;;;;;;;;;;;11.80;99.90;;;;;;5013752;28;19910;-82
2022/07/10 07:48:14;;;;;;;;;;;11.80;99.90;;;;;;5012474;28;19916;-78
2022/07/10 07:50:40;;;;;;;;;;;11.80;99.90;;;;;;5011878;28;19917;-75
2022/07/10 07:53:07;;;;;;;;;;;11.80;99.90;;;;;;5011749;28;19917;-79
2022/07/10 07:55:34;;;;;;;;;;;11.80;99.90;;;;;;5011940;28;19921;-75
2022/07/10 07:58:02;;;;;;;;;;;11.80;99.90;;;;;;5011685;28;19936;-80
2022/07/10 08:00:30;;;;;;;;;;;11.80;99.90;;;;;;5011458;28;19909;-76
2022/07/10 08:02:57;;;;;;;;;;;11.80;99.90;;;;;;5011277;28;19956;-77
2022/07/10 08:05:25;;;;;;;;;;;11.80;99.90;;;;;;5011927;28;19966;-76
2022/07/10 08:07:52;;;;;;;;;;;11.80;99.90;;;;;;5011457;28;19917;-76
2022/07/10 08:10:20;;;;;;;;;;;11.80;99.90;;;;;;5011595;28;20371;-78
2022/07/10 08:12:47;;;;;;;;;;;11.80;99.90;;;;;;5011504;28;19913;-75
2022/07/10 08:15:17;;;;;;;;;;;11.90;99.90;;;;;;5010963;28;19914;-76
2022/07/10 08:17:46;;;;;;;;;;;11.90;99.90;;;;;;5011688;28;19920;-74
2022/07/10 08:20:13;;;;;;;;;;;11.80;99.90;;;;;;5011610;28;19971;-75
2022/07/10 08:22:41;;;;;;;;;;;11.90;99.90;;;;;;5011444;28;20012;-77
2022/07/10 08:25:08;;;;;;;;;;;11.90;99.90;;;;;;5011156;28;20253;-75
2022/07/10 08:27:35;;;;;;;;;;;11.80;99.90;;;;;;5011236;28;20374;-76
2022/07/10 08:30:02;;;;;;;;;;;11.80;99.90;;;;;;5010801;28;19930;-76
2022/07/10 08:32:29;;;;;;;;;;;11.80;99.90;;;;;;5011464;28;19913;-75
2022/07/10 08:34:56;;;;;;;;;;;11.80;99.90;;;;;;5011285;28;19914;-74
2022/07/10 08:37:22;;;;;;;;;;;11.80;99.90;;;;;;5011347;28;19921;-75
2022/07/10 08:39:49;;;;;;;;;;;11.80;99.90;;;;;;5011408;28;19936;-75
2022/07/10 08:42:16;;;;;;;;;;;11.70;99.90;;;;;;5011154;28;20048;-74
2022/07/10 08:44:43;;;;;;;;;;;11.70;99.90;;;;;;5010848;28;19909;-75
2022/07/10 08:47:11;;;;;;;;;;;11.70;99.90;;;;;;5011108;28;19997;-76
2022/07/10 08:49:38;;;;;;;;;;;11.70;99.90;;;;;;5011020;28;19992;-74
2022/07/10 08:52:06;;;;;;;;;;;11.60;99.90;;;;;;5011454;28;20367;-76
2022/07/10 08:54:33;;;;;;;;;;;11.60;99.90;;;;;;5010748;28;19921;-75
2022/07/10 08:57:01;;;;;;;;;;;11.60;99.90;;;;;;5011004;28;20258;-78
2022/07/10 08:59:28;;;;;;;;;;;11.60;99.90;;;;;;5010632;28;19980;-75
2022/07/10 09:01:55;;;;;;;;;;;11.60;99.90;;;;;;5011077;28;20334;-79
2022/07/10 09:04:25;;;;;;;;;;;11.60;99.90;;;;;;5011605;28;19921;-79
2022/07/10 09:06:53;;;;;;;;;;;11.50;99.90;;;;;;4995085;28;19909;-80
2022/07/10 09:09:20;;;;;;;;;;;11.50;99.90;;;;;;5013076;28;19927;-76
2022/07/10 09:11:47;;;;;;;;;;;11.50;99.90;;;;;;5013307;28;19980;-75
2022/07/10 09:14:17;;;;;;;;;;;11.50;99.90;;;;;;5013287;28;19909;-76
2022/07/10 09:16:47;;;;;;;;;;;11.40;99.90;;;;;;5012988;28;19931;-78
2022/07/10 09:19:19;;;;;;;;;;;11.40;99.90;;;;;;5012841;28;19910;-77
2022/07/10 09:21:47;;;;;;;;;;;11.40;99.90;;;;;;5012873;28;19914;-76
2022/07/10 09:24:16;;;;;;;;;;;11.40;99.90;;;;;;5013126;28;19916;-79
2022/07/10 09:26:43;;;;;;;;;;;11.40;99.90;;;;;;5011607;28;20005;-78
2022/07/10 09:29:11;;;;;;;;;;;11.30;99.90;;;;;;5012457;28;19913;-76
2022/07/10 09:31:51;;;;;;;;;;;11.30;99.90;;;;;;5012929;28;19960;-75
2022/07/10 09:34:18;;;;;;;;;;;11.30;99.90;;;;;;5012887;28;19909;-76
2022/07/10 09:36:45;;;;;;;;;;;11.40;99.90;;;;;;5012817;28;19916;-76
2022/07/10 09:39:11;;;;;;;;;;;11.30;99.90;;;;;;5012619;28;20370;-77
2022/07/10 09:41:38;;;;;;;;;;;11.20;99.90;;;;;;5012890;28;20310;-76
2022/07/10 09:44:08;;;;;;;;;;;11.30;99.90;;;;;;5015305;28;19910;-76
2022/07/10 09:46:35;;;;;;;;;;;11.30;99.90;;;;;;4998625;28;20382;-77
2022/07/10 09:49:07;;;;;;;;;;;11.40;99.90;;;;;;5015924;28;19979;-76
2022/07/10 09:51:37;;;;;;;;;;;11.40;99.90;;;;;;5016150;28;19910;-78
2022/07/10 09:54:05;;;;;;;;;;;11.30;99.90;;;;;;5014553;28;20371;-75
2022/07/10 09:56:34;;;;;;;;;;;11.40;99.90;;;;;;5015633;28;20036;-78
2022/07/10 09:59:01;;;;;;;;;;;11.50;99.90;;;;;;5015890;28;19910;-75
2022/07/10 10:01:30;;;;;;;;;;;11.50;99.90;;;;;;5015933;28;19931;-75
2022/07/10 10:04:00;;;;;;;;;;;11.50;99.90;;;;;;5015946;28;19964;-75
2022/07/10 10:06:28;;;;;;;;;;;11.50;99.90;;;;;;5015843;28;19949;-74
2022/07/10 10:08:59;;;;;;;;;;;11.50;99.90;;;;;;5015819;28;20271;-75
2022/07/10 10:11:27;;;;;;;;;;;11.50;99.90;;;;;;5015295;28;20000;-75
2022/07/10 10:13:54;;;;;;;;;;;11.50;99.90;;;;;;5015790;28;19910;-74
2022/07/10 10:16:20;;;;;;;;;;;11.50;99.90;;;;;;5015719;28;20315;-73
2022/07/10 10:21:34;;;;;;;;;;;11.50;99.90;;;;;;5015729;28;19921;-76
2022/07/10 10:24:01;;;;;;;;;;;11.50;99.90;;;;;;5016273;28;19909;-76
2022/07/10 10:26:28;;;;;;;;;;;11.50;99.90;;;;;;5015165;28;19910;-75
2022/07/10 10:28:59;;;;;;;;;;;11.50;99.90;;;;;;5015148;28;19921;-74
2022/07/10 10:31:28;;;;;;;;;;;11.40;99.90;;;;;;5015525;28;19936;-76
2022/07/10 10:33:55;;;;;;;;;;;11.40;99.90;;;;;;5015475;28;20003;-75
2022/07/10 10:36:37;;;;;;;;;;;11.40;99.90;;;;;;5015331;28;20282;-76
2022/07/10 10:39:10;;;;;;;;;;;11.30;99.90;;;;;;5015165;28;19909;-74
2022/07/10 10:41:45;;;;;;;;;;;11.40;99.90;;;;;;5015237;28;19909;-79
2022/07/10 10:44:18;;;;;;;;;;;11.30;99.90;;;;;;5015238;28;19972;-76
2022/07/10 10:46:54;;;;;;;;;;;11.30;99.90;;;;;;4997625;28;19967;-76
2022/07/10 10:49:22;;;;;;;;;;;11.30;99.90;;;;;;5015191;28;19940;-75
2022/07/10 10:52:03;;;;;;;;;;;11.30;99.90;;;;;;5015141;28;19917;-80
2022/07/10 10:54:31;;;;;;;;;;;11.30;99.90;;;;;;5014122;28;19916;-78
2022/07/10 10:57:14;;;;;;;;;;;11.30;99.90;;;;;;5014287;28;19910;-76
2022/07/10 10:59:46;;;;;;;;;;;11.30;99.90;;;;;;5015136;28;20378;-76
2022/07/10 11:02:39;;;;;;;;;;;11.30;99.90;;;;;;5014949;28;19909;-78
2022/07/10 11:05:14;;;;;;;;;;;11.30;99.90;;;;;;5014669;28;19960;-75
2022/07/10 11:07:58;;;;;;;;;;;11.20;99.90;;;;;;5014660;28;19916;-79
2022/07/10 11:10:50;;;;;;;;;;;11.10;99.90;;;;;;5014203;28;19929;-78
2022/07/10 11:13:18;;;;;;;;;;;11.10;99.90;;;;;;5013669;28;20279;-75
2022/07/10 11:15:46;;;;;;;;;;;11.00;99.90;;;;;;5014827;28;19914;-76
2022/07/10 11:18:13;;;;;;;;;;;11.00;99.90;;;;;;5015172;28;19996;-77
2022/07/10 11:20:53;;;;;;;;;;;10.90;99.90;;;;;;5014291;28;20012;-76
2022/07/10 11:23:37;;;;;;;;;;;11.00;99.90;;;;;;5014653;28;20322;-75
2022/07/10 11:26:11;;;;;;;;;;;10.90;99.90;;;;;;5014150;28;20253;-75
2022/07/10 11:28:44;;;;;;;;;;;10.90;99.90;;;;;;5014343;28;19917;-76
2022/07/10 11:31:10;;;;;;;;;;;10.90;99.90;;;;;;5014334;28;20356;-75
2022/07/10 11:33:42;;;;;;;;;;;10.90;99.90;;;;;;5014580;28;19916;-76
2022/07/10 11:36:25;;;;;;;;;;;10.90;99.90;;;;;;5014244;28;19956;-77
2022/07/10 11:38:59;;;;;;;;;;;10.90;99.90;;;;;;5014120;28;19991;-75
2022/07/10 11:41:26;;;;;;;;;;;10.80;99.90;;;;;;5013751;28;19973;-79
2022/07/10 11:44:00;;;;;;;;;;;10.80;99.90;;;;;;5014474;28;20020;-75
2022/07/10 11:46:28;;;;;;;;;;;10.80;99.90;;;;;;5014328;28;19916;-76
2022/07/10 11:48:58;;;;;;;;;;;10.80;99.90;;;;;;5013780;28;20335;-76
2022/07/10 11:51:29;;;;;;;;;;;10.80;99.90;;;;;;5014063;28;19914;-75
2022/07/10 11:53:56;;;;;;;;;;;10.80;99.90;;;;;;5014145;28;19915;-75
2022/07/10 11:56:22;;;;;;;;;;;10.80;99.90;;;;;;5013558;28;19916;-77
2022/07/10 11:59:02;;;;;;;;;;;10.80;99.90;;;;;;5014150;28;20009;-75
2022/07/10 12:01:29;;;;;;;;;;;10.70;99.90;;;;;;5014025;28;19992;-76
2022/07/10 12:03:57;;;;;;;;;;;10.70;99.90;;;;;;5013716;28;19917;-74
2022/07/10 12:06:24;;;;;;;;;;;10.70;99.90;;;;;;5013688;28;19913;-76
2022/07/10 12:08:51;;;;;;;;;;;10.70;99.90;;;;;;5013926;28;19972;-75
2022/07/10 12:11:18;;;;;;;;;;;10.70;99.90;;;;;;5013492;28;19964;-75
2022/07/10 12:13:45;;;;;;;;;;;10.70;99.90;;;;;;5014073;28;19909;-75
2022/07/10 12:16:13;;;;;;;;;;;10.70;99.90;;;;;;5015834;28;19909;-80
2022/07/10 12:18:41;;;;;;;;;;;10.70;99.90;;;;;;5013952;28;20344;-80
2022/07/10 12:21:11;;;;;;;;;;;10.60;99.90;;;;;;5013598;28;19909;-80
2022/07/10 12:23:41;;;;;;;;;;;10.60;99.90;;;;;;5013873;28;19935;-81
2022/07/10 12:26:11;;;;;;;;;;;10.60;99.90;;;;;;5013248;28;19933;-81
2022/07/10 12:28:54;;;;;;;;;;;10.60;99.90;;;;;;5013704;28;19910;-79
2022/07/10 12:31:24;;;;;;;;;;;10.60;99.90;;;;;;5013692;28;20387;-81
2022/07/10 12:33:57;;;;;;;;;;;10.60;99.90;;;;;;5013749;28;19921;-81
2022/07/10 12:36:24;;;;;;;;;;;10.60;99.90;;;;;;5013640;28;19961;-80
2022/07/10 12:38:55;;;;;;;;;;;10.60;99.90;;;;;;5013490;28;20370;-78
2022/07/10 12:41:24;;;;;;;;;;;10.60;99.90;;;;;;5013004;28;19916;-81
2022/07/10 12:43:51;;;;;;;;;;;10.60;99.90;;;;;;5013594;28;20248;-80
2022/07/10 12:46:25;;;;;;;;;;;10.50;99.90;;;;;;5013545;28;19914;-80
2022/07/10 12:49:23;;;;;;;;;;;10.50;99.90;;;;;;5013302;28;19918;-79
2022/07/10 12:51:50;;;;;;;;;;;10.50;99.90;;;;;;5012043;28;19914;-81
2022/07/10 12:54:35;;;;;;;;;;;10.50;99.90;;;;;;5013009;28;19956;-81
2022/07/10 12:57:04;;;;;;;;;;;10.50;99.90;;;;;;5013331;28;20429;-81
2022/07/10 12:59:33;;;;;;;;;;;10.50;99.90;;;;;;5013353;28;19952;-78
2022/07/10 13:02:13;;;;;;;;;;;10.50;99.90;;;;;;5013361;28;20413;-79
2022/07/10 13:04:40;;;;;;;;;;;10.50;99.90;;;;;;5013341;28;19926;-80
2022/07/10 13:07:13;;;;;;;;;;;10.50;99.90;;;;;;5013002;28;19910;-81
2022/07/10 13:09:40;;;;;;;;;;;10.40;99.90;;;;;;5012761;28;20279;-78
2022/07/10 13:12:07;;;;;;;;;;;10.40;99.90;;;;;;5013451;28;20273;-77
2022/07/10 13:14:34;;;;;;;;;;;10.40;99.90;;;;;;5013195;28;19916;-79
2022/07/10 13:17:01;;;;;;;;;;;10.40;99.90;;;;;;5012939;28;19945;-78
2022/07/10 13:19:27;;;;;;;;;;;10.40;99.90;;;;;;5016564;28;20003;-81
2022/07/10 13:21:54;;;;;;;;;;;10.40;99.90;;;;;;5016919;28;20371;-79
2022/07/10 13:24:21;;;;;;;;;;;10.30;99.90;;;;;;5016532;28;19916;-82
2022/07/10 13:26:47;;;;;;;;;;;10.30;99.90;;;;;;5016856;28;20370;-80
2022/07/10 13:29:14;;;;;;;;;;;10.30;99.90;;;;;;5016463;28;19920;-80
2022/07/10 13:31:41;;;;;;;;;;;10.30;99.90;;;;;;5016769;28;19910;-82
2022/07/10 13:34:07;;;;;;;;;;;10.40;99.90;;;;;;5016779;28;19916;-81
2022/07/10 13:36:34;;;;;;;;;;;10.30;99.90;;;;;;5016605;28;19909;-80
2022/07/10 13:39:01;;;;;;;;;;;10.40;99.90;;;;;;5015962;28;20009;-80
2022/07/10 13:41:28;;;;;;;;;;;10.40;99.90;;;;;;5016627;28;19932;-81
2022/07/10 13:43:55;;;;;;;;;;;10.40;99.90;;;;;;5016507;28;20308;-80
2022/07/10 13:46:22;;;;;;;;;;;10.40;99.90;;;;;;5016535;28;19913;-77
2022/07/10 13:48:48;;;;;;;;;;;10.40;99.90;;;;;;5016374;28;19918;-76
2022/07/10 13:51:15;;;;;;;;;;;10.40;99.90;;;;;;5016039;28;19909;-75
2022/07/10 13:53:42;;;;;;;;;;;10.40;99.90;;;;;;5015750;28;19944;-77
2022/07/10 13:56:09;;;;;;;;;;;10.40;99.90;;;;;;5016273;28;20360;-76
2022/07/10 13:58:36;;;;;;;;;;;10.40;99.90;;;;;;5016275;28;19975;-77
2022/07/10 14:01:04;;;;;;;;;;;10.40;99.90;;;;;;5016013;28;20340;-75
2022/07/10 14:03:31;;;;;;;;;;;10.40;99.90;;;;;;5016066;28;19910;-77
2022/07/10 14:05:58;;;;;;;;;;;10.50;99.90;;;;;;5016024;28;19918;-75
2022/07/10 14:08:25;;;;;;;;;;;10.50;99.90;;;;;;5015579;28;19909;-76
2022/07/10 14:10:51;;;;;;;;;;;10.50;99.90;;;;;;5015873;28;20011;-76
2022/07/10 14:13:18;;;;;;;;;;;10.50;99.90;;;;;;5015984;28;19910;-75
2022/07/10 14:15:45;;;;;;;;;;;10.50;99.90;;;;;;5015935;28;20359;-76
2022/07/10 14:18:12;;;;;;;;;;;10.50;99.90;;;;;;5015919;28;20450;-76
2022/07/10 14:23:23;;;;;;;;;;;10.50;99.90;;;;;;5015573;28;20071;-77
2022/07/10 14:25:50;;;;;;;;;;;10.50;99.90;;;;;;5015688;28;20004;-76
2022/07/10 14:28:17;;;;;;;;;;;10.50;99.90;;;;;;5015790;28;20008;-78
2022/07/10 14:30:43;;;;;;;;;;;10.40;99.90;;;;;;5015639;28;19917;-76
2022/07/10 14:33:10;;;;;;;;;;;10.40;99.90;;;;;;5015532;28;19945;-76
2022/07/10 14:35:37;;;;;;;;;;;10.40;99.90;;;;;;5015448;28;19914;-75